createdAt,value
2023-01-29T00:02:06.927Z,95105.00
2023-01-29T00:04:33.544Z,95104.25
2023-01-29T00:07:00.394Z,95100.81
2023-01-29T00:09:28.414Z,95111.88
2023-01-29T00:11:55.031Z,95078.63
2023-01-29T00:14:21.668Z,95111.13
2023-01-29T00:16:48.378Z,95118.41
2023-01-29T00:19:15.113Z,95122.22
2023-01-29T00:21:41.719Z,95105.00
2023-01-29T00:24:08.446Z,95112.25
2023-01-29T00:26:35.424Z,95125.66
2023-01-29T00:29:02.749Z,95109.56
2023-01-29T00:31:29.997Z,95099.63
2023-01-29T00:33:57.191Z,95106.91
2023-01-29T00:36:25.571Z,95134.03
2023-01-29T00:38:58.763Z,95123.75
2023-01-29T00:41:50.172Z,95112.25
2023-01-29T00:44:36.280Z,95128.31
2023-01-29T00:47:03.467Z,95112.25
2023-01-29T00:49:32.865Z,95100.81
2023-01-29T00:52:18.024Z,95118.00
2023-01-29T00:54:44.618Z,95106.56
2023-01-29T00:57:11.274Z,95119.91
2023-01-29T00:59:37.944Z,95125.63
2023-01-29T01:02:23.130Z,95119.50
2023-01-29T01:04:49.716Z,95113.41
2023-01-29T01:07:16.371Z,95119.53
2023-01-29T01:10:01.620Z,95089.34
2023-01-29T01:12:28.551Z,95108.03
2023-01-29T01:14:55.236Z,95099.66
2023-01-29T01:17:22.277Z,95117.22
2023-01-29T01:19:48.914Z,95111.88
2023-01-29T01:22:15.496Z,95116.47
2023-01-29T01:24:42.173Z,95119.50
2023-01-29T01:27:08.828Z,95100.03
2023-01-29T01:29:35.466Z,95097.38
2023-01-29T01:32:02.397Z,95120.28
2023-01-29T01:34:29.118Z,95122.56
2023-01-29T01:36:56.470Z,95098.91
2023-01-29T01:39:25.023Z,95113.41
2023-01-29T01:41:56.405Z,95126.41
2023-01-29T01:44:52.492Z,95123.34
2023-01-29T01:47:45.352Z,95123.72
2023-01-29T01:50:17.993Z,95124.88
2023-01-29T01:52:49.344Z,95124.88
2023-01-29T01:55:19.574Z,95105.72
2023-01-29T01:57:50.785Z,95129.06
2023-01-29T02:00:20.266Z,95119.13
2023-01-29T02:03:06.680Z,95126.78
2023-01-29T02:05:54.704Z,95114.53
2023-01-29T02:09:02.993Z,95126.78
2023-01-29T02:11:30.411Z,95117.22
2023-01-29T02:13:57.618Z,95130.25
2023-01-29T02:16:24.196Z,95126.00
2023-01-29T02:18:51.407Z,95105.00
2023-01-29T02:21:38.996Z,95101.53
2023-01-29T02:24:34.170Z,95132.91
2023-01-29T02:27:09.104Z,95129.84
2023-01-29T02:29:44.744Z,95134.03
2023-01-29T02:32:29.507Z,95138.25
2023-01-29T02:35:23.999Z,95134.41
2023-01-29T02:38:01.732Z,95119.50
2023-01-29T02:40:40.898Z,95134.44
2023-01-29T02:43:10.479Z,95145.13
2023-01-29T02:45:46.563Z,95152.78
2023-01-29T02:48:18.399Z,95146.28
2023-01-29T02:50:58.987Z,95146.63
2023-01-29T02:53:44.395Z,95159.25
2023-01-29T02:56:16.906Z,95135.16
2023-01-29T02:58:48.503Z,95119.91
2023-01-29T03:01:30.353Z,95142.47
2023-01-29T03:04:02.507Z,95122.19
2023-01-29T03:06:49.337Z,95145.53
2023-01-29T03:09:28.358Z,95150.13
2023-01-29T03:12:02.084Z,95134.06
2023-01-29T03:15:00.511Z,95159.66
2023-01-29T03:17:32.464Z,95139.78
2023-01-29T03:20:00.205Z,95150.50
2023-01-29T03:22:27.924Z,95136.34
2023-01-29T03:25:17.089Z,95149.34
2023-01-29T03:28:11.148Z,95152.78
2023-01-29T03:31:01.607Z,95165.41
2023-01-29T03:33:32.565Z,95160.06
2023-01-29T03:36:05.112Z,95170.75
2023-01-29T03:38:32.215Z,95145.88
2023-01-29T03:41:14.153Z,95164.25
2023-01-29T03:43:56.593Z,95161.56
2023-01-29T03:46:23.187Z,95160.81
2023-01-29T03:49:08.461Z,95134.78
2023-01-29T03:51:35.316Z,95156.22
2023-01-29T03:54:27.005Z,95161.56
2023-01-29T03:57:19.243Z,95152.00
2023-01-29T03:59:48.698Z,95170.75
2023-01-29T04:02:27.660Z,95169.22
2023-01-29T04:04:59.482Z,95130.22
2023-01-29T04:07:29.736Z,95166.16
2023-01-29T04:10:00.822Z,95151.25
2023-01-29T04:12:36.122Z,95170.38
2023-01-29T04:15:05.832Z,95168.47
2023-01-29T04:17:39.828Z,95136.31
2023-01-29T04:20:07.196Z,95172.28
2023-01-29T04:22:38.818Z,95173.81
2023-01-29T04:25:15.951Z,95173.81
2023-01-29T04:27:52.278Z,95169.22
2023-01-29T04:30:50.419Z,95172.66
2023-01-29T04:33:44.802Z,95176.84
2023-01-29T04:36:14.194Z,95177.25
2023-01-29T04:38:40.807Z,95179.91
2023-01-29T04:41:26.810Z,95166.13
2023-01-29T04:44:15.355Z,95178.34
2023-01-29T04:46:52.934Z,95168.81
2023-01-29T04:49:25.797Z,95178.38
2023-01-29T04:52:00.749Z,95174.56
2023-01-29T04:54:45.609Z,95182.59
2023-01-29T04:57:23.198Z,95185.25
2023-01-29T05:00:14.903Z,95179.53
2023-01-29T05:02:44.667Z,95185.25
2023-01-29T05:05:13.885Z,95169.56
2023-01-29T05:07:42.842Z,95191.00
2023-01-29T05:10:12.859Z,95182.19
2023-01-29T05:12:41.274Z,95175.31
2023-01-29T05:15:19.553Z,95192.91
2023-01-29T05:17:46.161Z,95177.97
2023-01-29T05:20:13.854Z,95186.03
2023-01-29T05:22:42.562Z,95189.06
2023-01-29T05:25:22.721Z,95202.84
2023-01-29T05:28:14.168Z,95186.03
2023-01-29T05:30:40.829Z,95183.72
2023-01-29T05:33:25.805Z,95188.31
2023-01-29T05:35:52.509Z,95202.47
2023-01-29T05:38:19.636Z,95191.38
2023-01-29T05:40:46.407Z,95205.94
2023-01-29T05:43:24.922Z,95199.78
2023-01-29T05:45:56.488Z,95208.59
2023-01-29T05:48:24.821Z,95206.72
2023-01-29T05:50:54.866Z,95220.06
2023-01-29T05:53:21.481Z,95222.78
2023-01-29T05:55:48.476Z,95211.28
2023-01-29T05:58:15.322Z,95218.16
2023-01-29T06:00:41.961Z,95231.94
2023-01-29T06:03:08.566Z,95228.16
2023-01-29T06:05:38.177Z,95228.88
2023-01-29T06:08:05.364Z,95212.03
2023-01-29T06:10:32.085Z,95217.81
2023-01-29T06:12:58.640Z,95231.56
2023-01-29T06:15:26.677Z,95234.59
2023-01-29T06:17:57.451Z,95232.72
2023-01-29T06:20:24.564Z,95248.41
2023-01-29T06:22:51.107Z,95247.63
2023-01-29T06:25:17.803Z,95236.13
2023-01-29T06:27:44.450Z,95243.41
2023-01-29T06:30:11.607Z,95264.06
2023-01-29T06:32:38.297Z,95256.03
2023-01-29T06:35:05.392Z,95267.13
2023-01-29T06:37:32.049Z,95262.91
2023-01-29T06:39:58.652Z,95265.63
2023-01-29T06:42:28.106Z,95254.88
2023-01-29T06:44:58.180Z,95268.28
2023-01-29T06:47:25.111Z,95257.19
2023-01-29T06:49:52.217Z,95271.38
2023-01-29T06:52:18.995Z,95247.25
2023-01-29T06:54:45.667Z,95274.81
2023-01-29T06:57:12.371Z,95277.47
2023-01-29T06:59:38.958Z,95277.13
2023-01-29T07:02:05.720Z,95283.22
2023-01-29T07:04:32.408Z,95274.03
2023-01-29T07:07:01.718Z,95278.59
2023-01-29T07:09:28.371Z,95295.06
2023-01-29T07:11:55.158Z,95290.84
2023-01-29T07:14:21.975Z,95246.84
2023-01-29T07:16:48.665Z,95289.72
2023-01-29T07:19:15.546Z,95253.34
2023-01-29T07:21:42.387Z,95312.31
2023-01-29T07:24:09.456Z,95300.06
2023-01-29T07:26:36.047Z,95297.34
2023-01-29T07:29:05.043Z,95266.72
2023-01-29T07:31:39.161Z,95260.59
2023-01-29T07:34:05.872Z,95283.91
2023-01-29T07:36:32.441Z,95304.66
2023-01-29T07:38:59.059Z,95270.16
2023-01-29T07:41:25.853Z,95315.72
2023-01-29T07:43:52.440Z,95309.63
2023-01-29T07:46:19.132Z,95324.56
2023-01-29T07:48:45.800Z,95315.00
2023-01-29T07:51:12.450Z,95288.59
2023-01-29T07:53:39.073Z,95322.28
2023-01-29T07:56:06.001Z,95300.84
2023-01-29T07:58:34.969Z,95319.97
2023-01-29T08:01:07.669Z,95300.84
2023-01-29T08:03:34.893Z,95323.78
2023-01-29T08:06:01.674Z,95305.78
2023-01-29T08:08:28.413Z,95333.34
2023-01-29T08:10:55.042Z,95287.84
2023-01-29T08:13:21.749Z,95285.53
2023-01-29T08:15:48.440Z,95325.72
2023-01-29T08:18:15.289Z,95328.78
2023-01-29T08:20:41.955Z,95328.78
2023-01-29T08:23:14.310Z,95331.47
2023-01-29T08:25:41.379Z,95335.69
2023-01-29T08:28:08.886Z,95304.66
2023-01-29T08:30:36.156Z,95349.09
2023-01-29T08:33:04.250Z,95340.66
2023-01-29T08:35:31.188Z,95335.66
2023-01-29T08:38:00.371Z,95302.34
2023-01-29T08:40:32.777Z,95354.44
2023-01-29T08:43:04.161Z,95341.44
2023-01-29T08:45:34.737Z,95347.16
2023-01-29T08:48:01.533Z,95308.50
2023-01-29T08:50:30.056Z,95335.28
2023-01-29T08:53:01.912Z,95369.75
2023-01-29T08:55:28.995Z,95353.28
2023-01-29T08:57:57.497Z,95368.59
2023-01-29T09:00:24.921Z,95362.81
2023-01-29T09:02:51.593Z,95351.34
2023-01-29T09:05:18.659Z,95359.41
2023-01-29T09:07:45.574Z,95339.88
2023-01-29T09:10:12.373Z,95367.44
2023-01-29T09:12:39.186Z,95357.50
2023-01-29T09:15:06.195Z,95359.41
2023-01-29T09:17:32.815Z,95340.63
2023-01-29T09:19:59.418Z,95371.66
2023-01-29T09:22:25.998Z,95351.00
2023-01-29T09:24:52.602Z,95350.63
2023-01-29T09:27:19.413Z,95359.06
2023-01-29T09:29:46.037Z,95375.88
2023-01-29T09:32:12.839Z,95363.63
2023-01-29T09:34:39.417Z,95357.13
2023-01-29T09:37:06.681Z,95348.31
2023-01-29T09:39:33.619Z,95353.69
2023-01-29T09:42:19.398Z,95323.44
2023-01-29T09:45:01.385Z,95348.69
2023-01-29T09:47:29.893Z,95344.13
2023-01-29T09:50:13.280Z,95350.25
2023-01-29T09:52:42.399Z,95352.13
2023-01-29T09:55:29.941Z,95349.09
2023-01-29T09:58:00.208Z,95328.03
2023-01-29T10:00:46.017Z,95318.44
2023-01-29T10:03:31.284Z,95346.00
2023-01-29T10:06:23.702Z,95351.75
2023-01-29T10:09:08.939Z,95336.81
2023-01-29T10:11:50.680Z,95342.94
2023-01-29T10:14:54.175Z,95322.66
2023-01-29T10:17:39.533Z,95335.28
2023-01-29T10:20:12.057Z,95330.34
2023-01-29T10:22:52.201Z,95334.91
2023-01-29T10:25:21.569Z,95331.09
2023-01-29T10:27:55.170Z,95315.41
2023-01-29T10:30:37.017Z,95311.16
2023-01-29T10:33:05.722Z,95291.28
2023-01-29T10:35:39.425Z,95305.44
2023-01-29T10:38:13.807Z,95302.78
2023-01-29T10:40:51.501Z,95321.91
2023-01-29T10:43:29.273Z,95320.00
2023-01-29T10:46:07.889Z,95330.31
2023-01-29T10:48:59.362Z,95322.25
2023-01-29T10:51:53.393Z,95306.94
2023-01-29T10:54:33.825Z,95320.72
2023-01-29T10:57:38.876Z,95310.81
2023-01-29T11:00:19.250Z,95302.38
2023-01-29T11:02:48.681Z,95309.66
2023-01-29T11:05:36.377Z,95301.97
2023-01-29T11:08:15.073Z,95305.81
2023-01-29T11:11:15.463Z,95302.78
2023-01-29T11:13:53.054Z,95282.47
2023-01-29T11:16:19.680Z,95299.69
2023-01-29T11:19:01.227Z,95298.53
2023-01-29T11:21:29.738Z,95293.19
2023-01-29T11:24:10.968Z,95277.84
2023-01-29T11:26:40.840Z,95290.84
2023-01-29T11:29:30.095Z,95254.09
2023-01-29T11:31:59.023Z,95278.94
2023-01-29T11:34:27.793Z,95275.16
2023-01-29T11:37:15.300Z,95255.59
2023-01-29T11:39:48.905Z,95263.63
2023-01-29T11:42:21.378Z,95241.06
2023-01-29T11:44:48.343Z,95167.63
2023-01-29T11:47:15.449Z,95267.84
2023-01-29T11:50:02.904Z,95262.09
2023-01-29T11:52:39.202Z,95263.22
2023-01-29T11:55:16.366Z,95248.28
2023-01-29T11:57:47.010Z,95236.13
2023-01-29T12:00:33.215Z,95260.97
2023-01-29T12:03:06.677Z,95259.06
2023-01-29T12:05:33.956Z,95228.88
2023-01-29T12:08:02.417Z,95257.50
2023-01-29T12:10:34.397Z,95267.06
2023-01-29T12:13:05.569Z,95247.13
2023-01-29T12:15:32.191Z,95251.03
2023-01-29T12:18:05.610Z,95254.72
2023-01-29T12:20:46.710Z,95252.81
2023-01-29T12:23:36.316Z,95251.97
2023-01-29T12:26:19.542Z,95250.06
2023-01-29T12:28:46.184Z,95256.06
2023-01-29T12:31:40.739Z,95250.59
2023-01-29T12:34:45.692Z,95256.00
2023-01-29T12:37:28.091Z,95246.06
2023-01-29T12:39:55.033Z,95257.75
2023-01-29T12:42:24.483Z,95257.38
2023-01-29T12:45:01.510Z,95257.41
2023-01-29T12:47:34.276Z,95249.25
2023-01-29T12:50:06.884Z,95254.72
2023-01-29T12:52:38.327Z,95247.44
2023-01-29T12:55:19.560Z,95255.13
2023-01-29T12:57:49.364Z,95254.78
2023-01-29T13:00:25.996Z,95250.91
2023-01-29T13:02:59.994Z,95248.25
2023-01-29T13:05:31.033Z,95252.16
2023-01-29T13:08:11.130Z,95231.47
2023-01-29T13:10:43.065Z,95255.19
2023-01-29T13:13:22.327Z,95231.09
2023-01-29T13:15:49.196Z,95231.47
2023-01-29T13:18:18.523Z,95249.44
2023-01-29T13:20:48.199Z,95236.47
2023-01-29T13:23:22.118Z,95265.59
2023-01-29T13:25:54.770Z,95258.69
2023-01-29T13:28:25.789Z,95260.59
2023-01-29T13:31:29.786Z,95266.31
2023-01-29T13:34:21.560Z,95251.78
2023-01-29T13:36:52.335Z,95282.41
2023-01-29T13:39:29.416Z,95274.78
2023-01-29T13:41:58.349Z,95270.16
2023-01-29T13:44:37.855Z,95274.41
2023-01-29T13:47:07.787Z,95259.50
2023-01-29T13:49:56.495Z,95279.38
2023-01-29T13:52:36.452Z,95292.38
2023-01-29T13:55:26.406Z,95274.41
2023-01-29T13:57:56.791Z,95287.03
2023-01-29T14:00:30.824Z,95282.81
2023-01-29T14:03:00.179Z,95288.56
2023-01-29T14:05:29.818Z,95292.00
2023-01-29T14:08:00.116Z,95289.34
2023-01-29T14:10:29.139Z,95302.00
2023-01-29T14:13:15.656Z,95294.72
2023-01-29T14:15:42.275Z,95289.34
2023-01-29T14:18:08.837Z,95303.53
2023-01-29T14:20:47.247Z,95311.56
2023-01-29T14:23:46.810Z,95307.72
2023-01-29T14:26:45.293Z,95305.44
2023-01-29T14:29:34.691Z,95291.66
2023-01-29T14:32:12.095Z,95311.56
2023-01-29T14:34:51.330Z,95312.34
2023-01-29T14:37:20.557Z,95313.50
2023-01-29T14:39:50.314Z,95268.31
2023-01-29T14:42:44.309Z,95315.78
2023-01-29T14:45:23.447Z,95310.78
2023-01-29T14:47:50.007Z,95316.91
2023-01-29T14:50:28.591Z,95315.78
2023-01-29T14:53:03.415Z,95311.19
2023-01-29T14:55:37.303Z,95315.00
2023-01-29T14:58:04.903Z,95306.97
2023-01-29T15:00:36.987Z,95316.94
2023-01-29T15:03:12.267Z,95291.63
2023-01-29T15:05:40.305Z,95281.69
2023-01-29T15:08:08.741Z,95319.97
2023-01-29T15:11:12.763Z,95319.97
2023-01-29T15:14:24.061Z,95305.06
2023-01-29T15:17:10.209Z,95301.22
2023-01-29T15:19:44.904Z,95317.31
2023-01-29T15:22:23.292Z,95313.47
2023-01-29T15:25:15.313Z,95318.81
2023-01-29T15:27:43.619Z,95318.06
2023-01-29T15:30:29.252Z,95312.31
2023-01-29T15:32:56.862Z,95315.75
2023-01-29T15:35:35.587Z,95308.09
2023-01-29T15:38:07.300Z,95310.78
2023-01-29T15:40:34.869Z,95322.25
2023-01-29T15:43:01.696Z,95306.53
2023-01-29T15:45:31.516Z,95329.09
2023-01-29T15:48:12.916Z,95337.53
2023-01-29T15:50:42.359Z,95276.66
2023-01-29T15:53:21.540Z,95337.88
2023-01-29T15:55:48.593Z,95339.81
2023-01-29T15:58:24.231Z,95326.03
2023-01-29T16:00:56.726Z,95336.00
2023-01-29T16:03:25.091Z,95217.59
2023-01-29T16:05:52.564Z,95338.63
2023-01-29T16:08:21.956Z,95321.38
2023-01-29T16:10:55.322Z,95331.72
2023-01-29T16:13:29.236Z,95342.84
2023-01-29T16:16:02.571Z,95336.34
2023-01-29T16:18:47.750Z,95319.13
2023-01-29T16:21:34.037Z,95346.28
2023-01-29T16:24:12.090Z,95350.13
2023-01-29T16:26:43.942Z,95356.25
2023-01-29T16:29:13.566Z,95359.28
2023-01-29T16:31:43.437Z,95334.75
2023-01-29T16:34:26.728Z,95317.13
2023-01-29T16:36:55.102Z,95291.13
2023-01-29T16:39:25.509Z,95296.47
2023-01-29T16:42:10.874Z,95345.13
2023-01-29T16:44:45.822Z,95304.88
2023-01-29T16:47:25.709Z,95267.75
2023-01-29T16:49:59.438Z,95306.06
2023-01-29T16:52:32.369Z,95348.97
2023-01-29T16:55:12.918Z,95329.44
2023-01-29T16:57:40.731Z,95347.06
2023-01-29T17:00:18.198Z,95359.66
2023-01-29T17:02:44.957Z,95357.38
2023-01-29T17:05:23.732Z,95356.22
2023-01-29T17:07:50.888Z,95353.91
2023-01-29T17:10:21.973Z,95348.97
2023-01-29T17:12:55.890Z,95346.28
2023-01-29T17:15:47.778Z,95355.50
2023-01-29T17:18:22.993Z,95363.94
2023-01-29T17:20:50.694Z,95340.56
2023-01-29T17:23:17.387Z,95344.34
2023-01-29T17:25:44.991Z,95345.13
2023-01-29T17:28:13.948Z,95354.31
2023-01-29T17:30:41.313Z,95356.59
2023-01-29T17:33:17.187Z,95358.91
2023-01-29T17:35:45.533Z,95357.72
2023-01-29T17:38:25.025Z,95326.28
2023-01-29T17:41:11.940Z,95357.72
2023-01-29T17:43:38.705Z,95371.47
2023-01-29T17:46:05.861Z,95305.91
2023-01-29T17:48:32.821Z,95344.69
2023-01-29T17:51:04.632Z,95368.44
2023-01-29T17:53:45.598Z,95367.69
2023-01-29T17:56:27.658Z,95375.34
2023-01-29T17:58:54.479Z,95319.75
2023-01-29T18:01:21.452Z,95289.09
2023-01-29T18:03:48.189Z,95332.00
2023-01-29T18:06:28.161Z,95338.53
2023-01-29T18:08:54.849Z,95284.56
2023-01-29T18:11:21.624Z,95353.13
2023-01-29T18:13:48.754Z,95278.78
2023-01-29T18:16:16.080Z,95340.50
2023-01-29T18:18:42.729Z,95332.00
2023-01-29T18:21:09.387Z,95338.16
2023-01-29T18:23:36.343Z,95351.22
2023-01-29T18:26:03.115Z,95325.56
2023-01-29T18:28:29.957Z,95353.50
2023-01-29T18:30:56.690Z,95333.97
2023-01-29T18:33:24.244Z,95338.16
2023-01-29T18:35:51.092Z,95330.88
2023-01-29T18:38:18.180Z,95341.97
2023-01-29T18:40:44.812Z,95364.19
2023-01-29T18:43:11.781Z,95352.38
2023-01-29T18:45:38.510Z,95333.56
2023-01-29T18:48:05.799Z,95343.94
2023-01-29T18:50:32.613Z,95331.66
2023-01-29T18:52:59.524Z,95359.59
2023-01-29T18:55:29.001Z,95352.72
2023-01-29T18:58:26.937Z,95292.56
2023-01-29T19:00:43.759Z,95355.41
2023-01-29T19:03:10.942Z,95357.72
2023-01-29T19:05:37.625Z,95345.84
2023-01-29T19:08:05.839Z,95338.94
2023-01-29T19:10:33.007Z,95322.84
2023-01-29T19:12:59.661Z,95345.47
2023-01-29T19:15:26.534Z,95343.53
2023-01-29T19:17:56.620Z,95341.97
2023-01-29T19:20:23.685Z,95346.25
2023-01-29T19:22:50.347Z,95344.34
2023-01-29T19:25:17.960Z,95348.19
2023-01-29T19:27:45.980Z,95350.47
2023-01-29T19:30:13.103Z,95318.69
2023-01-29T19:32:40.697Z,95334.38
2023-01-29T19:35:07.819Z,95329.78
2023-01-29T19:37:34.497Z,95317.50
2023-01-29T19:40:04.303Z,95340.47
2023-01-29T19:42:30.899Z,95345.81
2023-01-29T19:44:57.608Z,95343.13
2023-01-29T19:47:24.510Z,95346.22
2023-01-29T19:49:51.191Z,95348.53
2023-01-29T19:52:49.782Z,95352.72
2023-01-29T19:55:19.057Z,95322.50
2023-01-29T19:57:46.335Z,95335.50
2023-01-29T20:00:15.661Z,95351.22
2023-01-29T20:02:42.401Z,95322.47
2023-01-29T20:05:12.001Z,95337.81
2023-01-29T20:07:42.556Z,95325.91
2023-01-29T20:10:17.120Z,95343.13
2023-01-29T20:12:45.189Z,95336.25
2023-01-29T20:15:15.028Z,95349.25
2023-01-29T20:17:41.894Z,95296.81
2023-01-29T20:20:09.350Z,95317.53
2023-01-29T20:22:36.195Z,95349.34
2023-01-29T20:25:02.929Z,95346.66
2023-01-29T20:27:29.549Z,95327.47
2023-01-29T20:29:56.128Z,95341.25
2023-01-29T20:32:22.759Z,95343.13
2023-01-29T20:34:52.158Z,95335.84
2023-01-29T20:37:19.426Z,95334.31
2023-01-29T20:39:46.067Z,95329.72
2023-01-29T20:42:13.007Z,95345.00
2023-01-29T20:44:39.683Z,95330.09
2023-01-29T20:47:06.298Z,95323.97
2023-01-29T20:49:33.136Z,95321.28
2023-01-29T20:51:59.824Z,95330.88
2023-01-29T20:54:26.514Z,95348.53
2023-01-29T20:56:53.482Z,95318.22
2023-01-29T20:59:23.611Z,95353.47
2023-01-29T21:01:50.332Z,95314.00
2023-01-29T21:04:17.395Z,95312.84
2023-01-29T21:06:44.012Z,95353.06
2023-01-29T21:09:10.652Z,95319.00
2023-01-29T21:11:37.309Z,95350.78
2023-01-29T21:14:03.982Z,95325.88
2023-01-29T21:16:30.898Z,95314.38
2023-01-29T21:18:58.744Z,95331.59
2023-01-29T21:21:26.693Z,95342.69
2023-01-29T21:23:53.668Z,95355.78
2023-01-29T21:26:20.449Z,95309.78
2023-01-29T21:28:47.450Z,95343.50
2023-01-29T21:31:16.377Z,95308.69
2023-01-29T21:33:43.886Z,95357.75
2023-01-29T21:36:10.956Z,95360.44
2023-01-29T21:38:38.054Z,95355.47
2023-01-29T21:41:08.210Z,95347.41
2023-01-29T21:43:34.901Z,95358.88
2023-01-29T21:46:11.720Z,95353.50
2023-01-29T21:48:39.809Z,95301.03
2023-01-29T21:51:07.233Z,95364.53
2023-01-29T21:53:34.344Z,95354.63
2023-01-29T21:56:02.569Z,95337.78
2023-01-29T21:58:29.985Z,95312.81
2023-01-29T22:00:56.969Z,95338.13
2023-01-29T22:03:42.595Z,95346.91
2023-01-29T22:06:09.425Z,95300.22
2023-01-29T22:08:36.106Z,95300.56
2023-01-29T22:11:07.315Z,95322.00
2023-01-29T22:13:34.155Z,95294.06
2023-01-29T22:16:01.068Z,95218.97
2023-01-29T22:18:27.694Z,95327.78
2023-01-29T22:20:55.767Z,95317.44
2023-01-29T22:23:23.165Z,95332.78
2023-01-29T22:25:50.151Z,95320.94
2023-01-29T22:28:17.845Z,95324.41
2023-01-29T22:30:45.227Z,95318.28
2023-01-29T22:33:12.371Z,95318.66
2023-01-29T22:35:38.975Z,95310.66
2023-01-29T22:38:05.893Z,95295.69
2023-01-29T22:40:32.694Z,95305.28
2023-01-29T22:43:12.494Z,95295.31
2023-01-29T22:45:39.737Z,95307.56
2023-01-29T22:48:07.987Z,95304.50
2023-01-29T22:50:34.800Z,95311.38
2023-01-29T22:53:01.356Z,95267.31
2023-01-29T22:55:27.946Z,95307.16
2023-01-29T22:57:54.605Z,95310.22
2023-01-29T23:00:21.377Z,95306.41
2023-01-29T23:02:48.534Z,95308.31
2023-01-29T23:05:15.324Z,95263.91
2023-01-29T23:07:41.978Z,95303.72
2023-01-29T23:10:10.150Z,95288.03
2023-01-29T23:12:36.801Z,95298.75
2023-01-29T23:15:03.665Z,95266.94
2023-01-29T23:17:30.329Z,95293.00
2023-01-29T23:19:57.123Z,95289.56
2023-01-29T23:22:39.989Z,95274.59
2023-01-29T23:25:07.083Z,95290.66
2023-01-29T23:27:33.645Z,95292.63
2023-01-29T23:30:00.281Z,95298.38
2023-01-29T23:32:26.914Z,95289.94
2023-01-29T23:34:53.621Z,95272.63
2023-01-29T23:37:20.323Z,95288.00
2023-01-29T23:39:47.168Z,95302.84
2023-01-29T23:42:13.770Z,95286.47
2023-01-29T23:44:40.488Z,95245.47
2023-01-29T23:47:08.436Z,95293.72
2023-01-29T23:49:35.352Z,95274.56
2023-01-29T23:52:02.388Z,95243.84
2023-01-29T23:54:29.338Z,95286.81
2023-01-29T23:56:55.954Z,95297.50
2023-01-29T23:59:22.801Z,95294.84
